Time;durP1;ratioP1;P1;durP2;ratioP2;P2;SDS_P1;SDS_P2;PMS_P1;PMS_P2;Temp;Humidity;BMP_temperature;BMP_pressure;BME280_temperature;BME280_humidity;BME280_pressure;Samples;Min_cycle;Max_cycle;Signal;HPM_P1;HPM_P2
2022/09/03 00:00:24;;;;;;;1.20;1.10;;;;;;;13.75;100.00;95554.72;1031227;28;20022;-68
2022/09/03 00:00:55;;;;;;;3.25;1.30;;;;;;;13.73;100.00;95554.19;1030922;28;20443;-70
2022/09/03 00:01:38;;;;;;;2.90;1.23;;;;;;;13.74;100.00;95553.13;1031028;28;20034;-69
2022/09/03 00:02:19;;;;;;;1.60;1.05;;;;;;;13.74;100.00;95553.13;1028733;28;20010;-70
2022/09/03 00:03:26;;;;;;;1.13;0.90;;;;;;;13.73;100.00;95543.66;1033983;28;20013;-70
2022/09/03 00:04:01;;;;;;;2.55;0.85;;;;;;;13.77;100.00;95549.91;1028211;28;20574;-69
2022/09/03 00:04:42;;;;;;;0.93;0.90;;;;;;;13.74;100.00;95553.13;1030945;28;20125;-69
2022/09/03 00:05:22;;;;;;;3.20;1.20;;;;;;;13.72;100.00;95544.72;1030928;28;20169;-70
2022/09/03 00:06:16;;;;;;;3.70;1.20;;;;;;;13.71;100.00;95552.91;1026846;28;20034;-70
2022/09/03 00:06:57;;;;;;;3.15;1.48;;;;;;;13.72;100.00;95542.09;1030720;28;20015;-70
2022/09/03 00:07:39;;;;;;;1.35;0.80;;;;;;;13.74;100.00;95557.63;1027332;28;20678;-69
2022/09/03 00:08:24;;;;;;;1.80;1.05;;;;;;;13.73;100.00;95562.13;1030700;28;20044;-71
2022/09/03 00:09:24;;;;;;;2.42;1.00;;;;;;;13.76;100.00;95553.63;1031326;28;20053;-69
2022/09/03 00:09:56;;;;;;;1.10;1.00;;;;;;;13.75;100.00;95546.81;1034732;28;20029;-70
2022/09/03 00:10:40;;;;;;;1.48;1.00;;;;;;;13.71;100.00;95548.41;1027267;28;20022;-69
2022/09/03 00:11:18;;;;;;;4.47;1.30;;;;;;;13.72;100.00;95539.47;1026659;28;20172;-69
2022/09/03 00:11:54;;;;;;;1.95;1.10;;;;;;;13.71;100.00;95548.41;1026869;28;20509;-69
2022/09/03 00:12:31;;;;;;;2.25;1.00;;;;;;;13.66;100.00;95540.59;1030837;28;20025;-69
2022/09/03 00:13:02;;;;;;;1.15;1.05;;;;;;;13.70;100.00;95546.88;1030986;28;20057;-70
2022/09/03 00:13:35;;;;;;;2.45;1.50;;;;;;;13.70;100.00;95548.72;1032322;28;20014;-69
2022/09/03 00:14:27;;;;;;;2.83;1.20;;;;;;;13.69;100.00;95540.03;1038876;28;20025;-67
2022/09/03 00:15:07;;;;;;;3.42;1.42;;;;;;;13.68;100.00;95544.53;1041914;28;20132;-68
2022/09/03 00:15:38;;;;;;;3.35;1.20;;;;;;;13.70;100.00;95546.88;1034877;28;20503;-70
2022/09/03 00:16:11;;;;;;;4.05;1.10;;;;;;;13.68;100.00;95538.44;1030901;28;20590;-70
2022/09/03 00:16:53;;;;;;;3.90;1.38;;;;;;;13.70;100.00;95541.59;1022708;29;20573;-70
2022/09/03 00:17:26;;;;;;;2.95;1.20;;;;;;;13.68;100.00;95547.16;1030629;28;20022;-70
2022/09/03 00:18:08;;;;;;;1.42;1.30;;;;;;;13.63;100.00;95541.16;1026770;28;20023;-69
2022/09/03 00:18:45;;;;;;;0.82;0.80;;;;;;;13.72;100.00;95555.28;1033794;28;20491;-69
2022/09/03 00:19:17;;;;;;;4.82;1.20;;;;;;;13.66;100.00;95543.25;1034244;28;20018;-69
2022/09/03 00:20:00;;;;;;;1.10;1.00;;;;;;;13.63;100.00;95541.94;1030692;28;20018;-70
2022/09/03 00:20:43;;;;;;;1.52;1.10;;;;;;;13.70;100.00;95557.41;1030788;28;20133;-69
2022/09/03 00:21:16;;;;;;;2.97;1.38;;;;;;;13.66;100.00;95544.03;1030974;28;20014;-70
2022/09/03 00:21:50;;;;;;;3.67;1.10;;;;;;;13.64;100.00;95546.16;1031103;28;20021;-69
2022/09/03 00:22:27;;;;;;;3.00;0.98;;;;;;;13.64;100.00;95550.63;1034782;28;20018;-70
2022/09/03 00:23:00;;;;;;;2.55;1.00;;;;;;;13.66;100.00;95551.16;1035025;28;20021;-69
2022/09/03 00:23:30;;;;;;;2.30;1.20;;;;;;;13.59;100.00;95545.47;1031580;28;20608;-71
2022/09/03 00:24:02;;;;;;;1.67;1.10;;;;;;;13.67;100.00;95550.06;1030667;28;20022;-70
2022/09/03 00:24:34;;;;;;;1.50;1.23;;;;;;;13.63;100.00;95541.94;1026723;28;20019;-70
2022/09/03 00:25:09;;;;;;;2.60;1.02;;;;;;;13.62;100.00;95535.13;1034816;28;20026;-70
2022/09/03 00:26:11;;;;;;;1.35;1.10;;;;;;;13.65;100.00;95545.09;1035121;28;20067;-70
2022/09/03 00:26:53;;;;;;;1.52;1.08;;;;;;;13.66;100.00;95543.25;1028531;28;20026;-71
2022/09/03 00:27:25;;;;;;;4.88;1.10;;;;;;;13.64;100.00;95546.16;1028627;28;20015;-71
2022/09/03 00:27:56;;;;;;;1.77;1.08;;;;;;;13.63;100.00;95543.81;1026641;28;20014;-70
2022/09/03 00:28:42;;;;;;;1.38;1.10;;;;;;;13.66;100.00;95548.50;1023010;28;20433;-70
2022/09/03 00:29:16;;;;;;;1.60;1.17;;;;;;;13.64;100.00;95545.38;1022182;29;20063;-69
2022/09/03 00:30:02;;;;;;;1.00;0.90;;;;;;;13.60;100.00;95544.38;1022759;29;20049;-69
2022/09/03 00:30:32;;;;;;;1.52;0.95;;;;;;;13.66;100.00;95551.16;1030730;28;20034;-71
2022/09/03 00:31:17;;;;;;;2.05;1.10;;;;;;;13.63;100.00;95555.13;1027406;28;20035;-70
2022/09/03 00:31:52;;;;;;;1.50;1.05;;;;;;;13.63;100.00;95557.00;1029859;28;20023;-69
2022/09/03 00:32:26;;;;;;;4.18;1.25;;;;;;;13.62;100.00;95550.94;1030415;28;20100;-70
2022/09/03 00:33:09;;;;;;;3.47;1.00;;;;;;;13.46;100.00;95525.09;1029891;28;20045;-70
2022/09/03 00:33:40;;;;;;;1.15;1.10;;;;;;;13.55;100.00;95545.25;1026812;28;20492;-70
2022/09/03 00:34:29;;;;;;;3.33;1.73;;;;;;;13.59;100.00;95556.78;1030627;28;20022;-70
2022/09/03 00:35:01;;;;;;;3.83;1.20;;;;;;;13.52;100.00;95539.75;1035085;28;20018;-70
2022/09/03 00:35:53;;;;;;;4.68;1.00;;;;;;;13.60;100.00;95552.28;1028349;28;20037;-69
2022/09/03 00:36:43;;;;;;;1.17;1.00;;;;;;;13.60;100.00;95547.00;1030836;28;20019;-70
2022/09/03 00:37:13;;;;;;;1.73;1.08;;;;;;;13.58;100.00;95555.22;1027973;28;20062;-69
2022/09/03 00:37:44;;;;;;;3.63;1.30;;;;;;;13.57;100.00;95558.13;1030764;28;20074;-69
2022/09/03 00:38:14;;;;;;;1.20;1.02;;;;;;;13.58;100.00;95552.59;1033500;28;20022;-69
2022/09/03 00:38:45;;;;;;;1.63;1.10;;;;;;;13.53;100.00;95543.97;1026689;28;20559;-70
2022/09/03 00:39:19;;;;;;;2.10;1.05;;;;;;;13.56;100.00;95552.06;1026508;28;20423;-68
2022/09/03 00:39:50;;;;;;;1.25;1.10;;;;;;;13.49;100.00;95540.31;1031254;28;20057;-69
2022/09/03 00:40:31;;;;;;;1.77;1.10;;;;;;;13.53;100.00;95551.88;1035480;28;20095;-70
2022/09/03 00:41:36;;;;;;;1.70;1.20;;;;;;;13.51;100.00;95556.63;1034614;28;20014;-70
2022/09/03 00:42:22;;;;;;;3.13;1.40;;;;;;;13.50;100.00;95557.72;1032956;28;20733;-69
2022/09/03 00:43:17;;;;;;;1.85;1.40;;;;;;;13.50;100.00;95557.72;1034661;28;20018;-70
2022/09/03 00:43:54;;;;;;;1.05;0.95;;;;;;;13.40;100.00;95543.59;1034875;28;20057;-69
2022/09/03 00:45:03;;;;;;;1.25;1.05;;;;;;;13.48;100.00;95551.91;1038718;28;20075;-69
2022/09/03 00:45:40;;;;;;;2.00;1.08;;;;;;;13.37;100.00;95541.53;1038025;28;20036;-69
2022/09/03 00:46:22;;;;;;;2.95;1.40;;;;;;;13.42;100.00;95554.66;1035224;28;20014;-70
2022/09/03 00:46:56;;;;;;;1.48;1.38;;;;;;;13.41;100.00;95547.81;1034534;28;20014;-70
2022/09/03 00:47:29;;;;;;;2.65;1.10;;;;;;;13.39;100.00;95552.56;1030760;28;20026;-69
2022/09/03 00:48:05;;;;;;;2.55;1.40;;;;;;;13.37;100.00;95554.69;1031815;28;20109;-69
2022/09/03 00:49:02;;;;;;;3.72;1.17;;;;;;;13.33;100.00;95552.94;1034924;28;20067;-69
2022/09/03 00:49:40;;;;;;;1.05;0.95;;;;;;;13.27;100.00;95538.25;1026328;28;20035;-69
2022/09/03 00:50:14;;;;;;;1.50;1.10;;;;;;;13.30;100.00;95554.28;1029896;28;20034;-69
2022/09/03 00:50:54;;;;;;;2.53;1.55;;;;;;;13.26;100.00;95541.97;1026305;28;20101;-69
2022/09/03 00:51:50;;;;;;;1.67;1.13;;;;;;;13.27;100.00;95548.78;1033422;28;22430;-70
2022/09/03 00:52:20;;;;;;;2.78;1.02;;;;;;;13.23;100.00;95551.19;1034729;28;20052;-70
2022/09/03 00:53:07;;;;;;;1.75;1.23;;;;;;;13.21;100.00;95555.94;1034586;28;20068;-70
2022/09/03 00:53:58;;;;;;;1.73;1.20;;;;;;;13.20;100.00;95555.16;1034643;28;20104;-71
2022/09/03 00:54:59;;;;;;;1.50;1.10;;;;;;;13.16;100.00;95548.09;1042991;28;20490;-70
2022/09/03 00:55:57;;;;;;;2.63;1.10;;;;;;;13.06;100.00;95540.34;1043431;28;20078;-71
2022/09/03 00:56:33;;;;;;;2.08;1.10;;;;;;;13.09;100.00;95547.69;1038738;28;20033;-70
2022/09/03 00:57:38;;;;;;;3.70;1.10;;;;;;;13.09;100.00;95552.94;1038722;28;20013;-70
2022/09/03 00:58:42;;;;;;;1.17;1.02;;;;;;;13.03;100.00;95554.06;1036905;28;20017;-70
2022/09/03 00:59:17;;;;;;;1.77;1.45;;;;;;;13.01;100.00;95556.19;1038037;28;20022;-69
2022/09/03 01:00:08;;;;;;;1.58;1.02;;;;;;;12.99;100.00;95556.47;1042373;28;20021;-70
2022/09/03 01:00:42;;;;;;;4.70;1.30;;;;;;;12.96;100.00;95555.19;1042391;28;20029;-70
2022/09/03 01:01:19;;;;;;;2.00;1.50;;;;;;;12.90;100.00;95543.16;1038682;28;20128;-69
2022/09/03 01:02:13;;;;;;;1.27;0.98;;;;;;;12.93;100.00;95553.13;1034746;28;20080;-69
2022/09/03 01:03:04;;;;;;;1.42;1.05;;;;;;;12.92;100.00;95554.19;1022282;29;20675;-69
2022/09/03 01:03:53;;;;;;;3.60;1.50;;;;;;;12.90;100.00;95556.31;1033992;28;20082;-70
2022/09/03 01:04:44;;;;;;;3.72;1.15;;;;;;;12.86;100.00;95555.31;1038754;28;20013;-70
2022/09/03 01:05:36;;;;;;;2.22;1.42;;;;;;;12.85;100.00;95558.25;1034676;28;20033;-70
2022/09/03 01:06:18;;;;;;;3.63;1.60;;;;;;;12.78;100.00;95555.94;1038545;28;20021;-69
2022/09/03 01:07:07;;;;;;;2.40;1.23;;;;;;;12.83;100.00;95561.13;1034037;28;20029;-70
2022/09/03 01:07:45;;;;;;;4.82;1.60;;;;;;;12.80;100.00;95566.19;1026691;28;20687;-70
2022/09/03 01:08:18;;;;;;;4.72;1.42;;;;;;;12.79;100.00;95565.41;1022537;28;20750;-69
2022/09/03 01:08:52;;;;;;;6.82;1.48;;;;;;;12.77;100.00;95567.53;1034505;28;20062;-69
2022/09/03 01:09:32;;;;;;;3.90;1.40;;;;;;;12.75;100.00;95567.03;1031824;28;20448;-72
2022/09/03 01:10:37;;;;;;;2.75;1.60;;;;;;;12.73;100.00;95567.28;1032882;28;20108;-69
2022/09/03 01:11:29;;;;;;;2.53;1.70;;;;;;;12.70;100.00;95573.13;1040645;28;20124;-70
2022/09/03 01:12:30;;;;;;;1.40;1.15;;;;;;;12.68;100.00;95569.22;1038266;28;20025;-70
2022/09/03 01:13:16;;;;;;;2.55;1.20;;;;;;;12.62;100.00;95565.06;1030659;28;20030;-70
2022/09/03 01:13:58;;;;;;;3.35;1.35;;;;;;;12.63;100.00;95570.03;1028603;28;20094;-69
2022/09/03 01:14:51;;;;;;;3.45;1.60;;;;;;;12.63;100.00;95577.94;1028183;28;20631;-70
2022/09/03 01:15:29;;;;;;;3.47;1.80;;;;;;;12.58;100.00;95580.63;1036218;28;20045;-70
2022/09/03 01:16:21;;;;;;;4.00;1.38;;;;;;;12.57;100.00;95583.53;1026960;28;20480;-69
2022/09/03 01:17:02;;;;;;;5.18;1.67;;;;;;;12.56;100.00;95576.69;1030440;28;20250;-70
2022/09/03 01:18:04;;;;;;;2.17;1.30;;;;;;;12.55;100.00;95580.41;1019905;28;20094;-70
2022/09/03 01:18:47;;;;;;;1.27;1.15;;;;;;;12.54;100.00;95581.44;1033009;28;20148;-70
2022/09/03 01:19:27;;;;;;;2.10;1.00;;;;;;;12.53;100.00;95577.25;1030703;28;20396;-71
2022/09/03 01:20:33;;;;;;;1.50;1.40;;;;;;;12.50;100.00;95573.31;1032147;28;20025;-69
2022/09/03 01:21:45;;;;;;;1.52;1.38;;;;;;;12.48;100.00;95581.50;1034594;28;20101;-70
2022/09/03 01:22:56;;;;;;;3.72;1.40;;;;;;;12.45;100.00;95576.81;1038578;28;20075;-69
2022/09/03 01:23:48;;;;;;;3.03;1.58;;;;;;;12.43;100.00;95578.91;1030183;28;20038;-70
2022/09/03 01:24:57;;;;;;;2.60;1.27;;;;;;;12.42;100.00;95576.56;1041974;28;20279;-70
2022/09/03 01:25:48;;;;;;;2.92;1.58;;;;;;;12.37;100.00;95577.38;1030277;28;20632;-70
2022/09/03 01:26:44;;;;;;;2.25;1.38;;;;;;;12.34;100.00;95574.53;1026262;28;20660;-70
2022/09/03 01:27:14;;;;;;;3.20;1.52;;;;;;;12.32;100.00;95566.16;1028534;28;20167;-70
2022/09/03 01:28:08;;;;;;;2.08;1.38;;;;;;;12.25;100.00;95569.88;1034818;28;21010;-70
2022/09/03 01:28:41;;;;;;;1.40;1.17;;;;;;;12.30;100.00;95573.53;1026366;28;20027;-70
2022/09/03 01:29:15;;;;;;;3.08;1.73;;;;;;;12.29;100.00;95572.75;1028983;28;20837;-70
2022/09/03 01:30:09;;;;;;;3.28;1.30;;;;;;;12.30;100.00;95576.16;1034700;28;20263;-69
2022/09/03 01:30:41;;;;;;;1.88;1.50;;;;;;;12.27;100.00;95575.66;1042441;28;20874;-69
2022/09/03 01:31:25;;;;;;;2.30;1.40;;;;;;;12.28;100.00;95571.19;1033735;28;20786;-69
2022/09/03 01:32:34;;;;;;;2.65;1.67;;;;;;;12.23;100.00;95569.38;1034353;28;20311;-69
2022/09/03 01:33:12;;;;;;;3.30;1.27;;;;;;;12.24;100.00;95570.16;1023899;28;20644;-70
2022/09/03 01:33:48;;;;;;;4.38;1.40;;;;;;;12.23;100.00;95574.63;1022380;28;20282;-70
2022/09/03 01:34:54;;;;;;;2.92;1.50;;;;;;;12.22;100.00;95574.91;1039553;28;20279;-70
2022/09/03 01:35:42;;;;;;;1.20;1.10;;;;;;;12.20;100.00;95566.50;1040815;28;20271;-70
2022/09/03 01:36:15;;;;;;;1.92;1.40;;;;;;;12.17;100.00;95570.50;1034595;28;20340;-70
2022/09/03 01:37:06;;;;;;;3.92;1.67;;;;;;;12.17;100.00;95572.31;1034688;28;20298;-70
2022/09/03 01:37:36;;;;;;;;;;;;;;;12.16;100.00;95565.50;1035994;28;20955;-70
2022/09/03 01:38:26;;;;;;;2.08;1.40;;;;;;;12.14;100.00;95559.72;1045074;28;19906;-71
2022/09/03 01:38:59;;;;;;;5.80;1.67;;;;;;;11.97;100.00;95539.88;1042649;28;20036;-69
2022/09/03 01:39:51;;;;;;;2.13;1.60;;;;;;;12.10;100.00;95558.69;1035622;28;20070;-71
2022/09/03 01:40:37;;;;;;;2.38;1.30;;;;;;;12.14;100.00;95559.72;1033617;28;20339;-69
2022/09/03 01:42:15;;;;;;;2.30;1.50;;;;;;;12.10;100.00;95564.75;1039450;28;20256;-70
2022/09/03 01:43:18;;;;;;;1.58;1.48;;;;;;;12.11;100.00;95555.03;1040819;28;20264;-69
2022/09/03 01:44:11;;;;;;;3.17;1.95;;;;;;;12.02;100.00;95547.72;1035697;28;20136;-70
2022/09/03 01:45:20;;;;;;;1.40;1.30;;;;;;;12.07;100.00;95560.03;1034783;28;20295;-70
2022/09/03 01:45:59;;;;;;;2.55;1.75;;;;;;;12.05;100.00;95561.38;1039042;28;20737;-69
2022/09/03 01:46:36;;;;;;;1.77;1.40;;;;;;;12.02;100.00;95552.19;1031527;28;20272;-70
2022/09/03 01:47:17;;;;;;;1.50;1.40;;;;;;;12.05;100.00;95562.16;1028321;28;20297;-69
2022/09/03 01:48:06;;;;;;;1.73;1.60;;;;;;;12.03;100.00;95557.16;1026985;28;20314;-70
2022/09/03 01:48:39;;;;;;;2.83;1.40;;;;;;;12.03;100.00;95559.00;1034592;28;20308;-71
2022/09/03 01:49:22;;;;;;;4.20;2.03;;;;;;;12.03;100.00;95557.16;1036097;28;20268;-70
2022/09/03 01:50:00;;;;;;;2.50;1.63;;;;;;;12.04;100.00;95555.34;1037801;28;20271;-70
2022/09/03 01:51:06;;;;;;;2.40;1.30;;;;;;;12.02;100.00;95558.25;1035837;28;20339;-69
2022/09/03 01:51:36;;;;;;;4.93;1.65;;;;;;;11.99;100.00;95558.78;1030098;28;20307;-70
2022/09/03 01:52:29;;;;;;;2.45;1.63;;;;;;;12.01;100.00;95556.69;1027839;28;20325;-71
2022/09/03 01:53:30;;;;;;;2.47;1.58;;;;;;;12.00;100.00;95570.09;1027916;28;20015;-69
2022/09/03 01:54:37;;;;;;;2.88;1.88;;;;;;;11.98;100.00;95567.75;1037267;28;20264;-70
2022/09/03 01:55:31;;;;;;;3.47;1.48;;;;;;;11.98;100.00;95562.47;1041810;28;20021;-70
2022/09/03 01:56:32;;;;;;;3.75;1.63;;;;;;;11.96;100.00;95561.97;1036334;28;20265;-70
2022/09/03 01:57:39;;;;;;;1.83;1.50;;;;;;;11.96;100.00;95564.59;1034407;28;20280;-69
2022/09/03 01:58:45;;;;;;;3.65;1.75;;;;;;;11.96;100.00;95554.06;1041292;28;20350;-70
2022/09/03 01:59:47;;;;;;;5.68;3.35;;;;;;;11.95;100.00;95554.38;1033627;28;20251;-69
2022/09/03 02:00:19;;;;;;;3.92;1.63;;;;;;;11.94;100.00;95548.31;1019219;29;20752;-70
2022/09/03 02:00:55;;;;;;;4.20;1.58;;;;;;;11.95;100.00;95557.78;1017191;28;20265;-69
2022/09/03 02:01:29;;;;;;;4.38;1.65;;;;;;;11.97;100.00;95553.03;1034297;28;20455;-71
2022/09/03 02:02:05;;;;;;;2.90;1.42;;;;;;;11.96;100.00;95559.34;1026064;28;20274;-71
2022/09/03 02:02:35;;;;;;;5.82;1.52;;;;;;;11.95;100.00;95557.78;1025920;28;20274;-70
2022/09/03 02:03:06;;;;;;;3.53;1.90;;;;;;;11.90;100.00;95551.75;1025368;28;20858;-70
2022/09/03 02:03:39;;;;;;;2.95;2.08;;;;;;;11.89;100.00;95550.97;1027880;28;20019;-68
2022/09/03 02:04:22;;;;;;;3.58;1.58;;;;;;;11.90;100.00;95551.75;1032442;28;20475;-70
2022/09/03 02:05:01;;;;;;;2.13;1.60;;;;;;;11.87;100.00;95547.03;1025081;28;20365;-69
2022/09/03 02:05:34;;;;;;;4.18;1.80;;;;;;;11.94;100.00;95565.94;1026280;28;20266;-69
2022/09/03 02:06:06;;;;;;;2.38;1.50;;;;;;;11.93;100.00;95559.88;1026519;28;20274;-70
2022/09/03 02:06:36;;;;;;;2.75;1.75;;;;;;;11.90;100.00;95560.44;1030429;28;20302;-70
2022/09/03 02:07:07;;;;;;;3.75;1.55;;;;;;;11.91;100.00;95556.75;1035444;28;20296;-70
2022/09/03 02:07:46;;;;;;;4.25;1.80;;;;;;;11.95;100.00;95562.25;1029489;28;20018;-70
2022/09/03 02:08:16;;;;;;;5.60;1.75;;;;;;;11.94;100.00;95566.72;1031956;28;20014;-69
2022/09/03 02:08:47;;;;;;;1.60;1.40;;;;;;;11.93;100.00;95561.72;1030074;28;20852;-71
2022/09/03 02:09:17;;;;;;;2.00;1.60;;;;;;;11.91;100.00;95561.25;1026875;28;20022;-70
2022/09/03 02:09:48;;;;;;;5.22;1.70;;;;;;;11.87;100.00;95558.38;1034118;28;20096;-69
2022/09/03 02:10:21;;;;;;;4.80;2.00;;;;;;;11.87;100.00;95554.94;1034182;28;20030;-70
2022/09/03 02:10:52;;;;;;;1.60;1.50;;;;;;;11.90;100.00;95560.44;1026313;28;20026;-70
2022/09/03 02:11:23;;;;;;;2.00;1.58;;;;;;;11.86;100.00;95554.16;1027136;28;20369;-70
2022/09/03 02:12:07;;;;;;;2.05;1.25;;;;;;;11.90;100.00;95549.91;1026491;28;20640;-69
2022/09/03 02:12:41;;;;;;;1.77;1.67;;;;;;;11.91;100.00;95555.97;1026416;28;20488;-70
2022/09/03 02:13:15;;;;;;;3.05;1.83;;;;;;;11.90;100.00;95559.66;1030210;28;20266;-70
2022/09/03 02:13:48;;;;;;;6.05;1.60;;;;;;;11.82;100.00;95545.22;1030297;28;20281;-71
2022/09/03 02:14:19;;;;;;;1.92;1.60;;;;;;;11.90;100.00;95555.16;1026105;28;20270;-71
2022/09/03 02:14:49;;;;;;;3.22;1.83;;;;;;;11.89;100.00;95555.47;1022436;29;20259;-70
2022/09/03 02:15:21;;;;;;;2.53;1.50;;;;;;;11.90;100.00;95554.38;1033794;28;20484;-69
2022/09/03 02:15:52;;;;;;;5.53;1.42;;;;;;;11.87;100.00;95547.03;1034548;28;20057;-70
2022/09/03 02:16:24;;;;;;;1.85;1.75;;;;;;;11.84;100.00;95552.81;1022062;29;20110;-71
2022/09/03 02:16:56;;;;;;;1.63;1.40;;;;;;;11.85;100.00;95547.34;1030107;28;20034;-69
2022/09/03 02:17:27;;;;;;;2.75;1.80;;;;;;;11.82;100.00;95542.59;1030239;28;20015;-70
2022/09/03 02:17:59;;;;;;;4.38;1.63;;;;;;;11.87;100.00;95552.31;1028509;28;20336;-69
2022/09/03 02:18:32;;;;;;;2.25;1.80;;;;;;;11.89;100.00;95553.59;1028523;28;20169;-70
2022/09/03 02:19:10;;;;;;;3.22;1.70;;;;;;;11.88;100.00;95552.03;1022020;29;20255;-69
2022/09/03 02:19:41;;;;;;;6.45;1.80;;;;;;;11.88;100.00;95551.28;1028320;28;20274;-70
2022/09/03 02:20:18;;;;;;;1.75;1.45;;;;;;;11.82;100.00;95547.06;1033603;28;20023;-70
2022/09/03 02:20:49;;;;;;;2.22;1.63;;;;;;;11.81;100.00;95543.66;1030450;28;20564;-70
2022/09/03 02:21:20;;;;;;;1.92;1.70;;;;;;;11.85;100.00;95544.72;1028797;28;20030;-69
2022/09/03 02:21:52;;;;;;;2.13;1.73;;;;;;;11.84;100.00;95545.78;1030476;28;20018;-70
2022/09/03 02:22:22;;;;;;;4.00;1.73;;;;;;;11.83;100.00;95544.16;1026344;28;20270;-69
2022/09/03 02:22:53;;;;;;;3.42;1.40;;;;;;;11.87;100.00;95549.69;1022932;28;20062;-69
2022/09/03 02:23:23;;;;;;;3.95;1.90;;;;;;;11.85;100.00;95549.19;1034546;28;20018;-70
2022/09/03 02:23:54;;;;;;;2.92;1.55;;;;;;;11.81;100.00;95541.03;1030626;28;20538;-70
2022/09/03 02:24:25;;;;;;;2.00;1.58;;;;;;;11.84;100.00;95543.16;1034410;28;20072;-70
2022/09/03 02:24:55;;;;;;;2.42;1.83;;;;;;;11.84;100.00;95544.94;1025370;28;20620;-68
2022/09/03 02:25:29;;;;;;;6.20;2.00;;;;;;;11.78;100.00;95536.31;1029114;28;20053;-69
2022/09/03 02:26:01;;;;;;;3.15;1.60;;;;;;;11.81;100.00;95546.28;1031234;28;20066;-69
2022/09/03 02:26:32;;;;;;;2.08;1.55;;;;;;;11.79;100.00;95543.91;1034411;28;20018;-68
2022/09/03 02:27:02;;;;;;;3.53;1.63;;;;;;;11.79;100.00;95543.91;1031078;28;20347;-69
2022/09/03 02:27:33;;;;;;;1.90;1.63;;;;;;;11.79;100.00;95551.03;1030736;28;20035;-69
2022/09/03 02:28:04;;;;;;;2.17;1.90;;;;;;;11.73;100.00;95541.59;1031211;28;20022;-69
2022/09/03 02:28:34;;;;;;;4.38;2.13;;;;;;;11.72;100.00;95540.81;1030553;28;20515;-70
2022/09/03 02:29:05;;;;;;;2.90;1.75;;;;;;;11.79;100.00;95553.66;1030283;28;20297;-70
2022/09/03 02:29:35;;;;;;;3.20;1.73;;;;;;;11.77;100.00;95548.69;1035202;28;20500;-70
2022/09/03 02:30:06;;;;;;;2.25;1.45;;;;;;;11.74;100.00;95551.84;1036655;28;20025;-68
2022/09/03 02:30:37;;;;;;;2.00;1.80;;;;;;;11.77;100.00;95551.31;1034589;28;20578;-69
2022/09/03 02:31:08;;;;;;;3.85;1.83;;;;;;;11.77;100.00;95555.78;1034342;28;20307;-70
2022/09/03 02:31:39;;;;;;;5.07;1.67;;;;;;;11.73;100.00;95538.97;1033494;28;20519;-69
2022/09/03 02:32:09;;;;;;;4.18;1.95;;;;;;;11.76;100.00;95554.97;1030591;28;20069;-70
2022/09/03 02:32:39;;;;;;;3.95;1.65;;;;;;;11.75;100.00;95552.63;1030995;28;20455;-69
2022/09/03 02:33:10;;;;;;;2.15;1.67;;;;;;;11.68;100.00;95546.91;1034628;28;20124;-71
2022/09/03 02:33:42;;;;;;;3.38;1.73;;;;;;;11.69;100.00;95546.63;1030789;28;20057;-70
2022/09/03 02:34:12;;;;;;;2.25;1.67;;;;;;;11.73;100.00;95546.84;1030792;28;20085;-69
2022/09/03 02:34:43;;;;;;;1.92;1.63;;;;;;;11.67;100.00;95542.69;1034823;28;20713;-70
2022/09/03 02:35:13;;;;;;;2.55;1.90;;;;;;;11.75;100.00;95552.63;1030777;28;20026;-70
2022/09/03 02:35:45;;;;;;;1.88;1.70;;;;;;;11.72;100.00;95547.94;1034412;28;20030;-69
2022/09/03 02:36:20;;;;;;;2.20;1.55;;;;;;;11.71;100.00;95551.63;1034872;28;20533;-70
2022/09/03 02:36:51;;;;;;;2.65;1.58;;;;;;;11.73;100.00;95552.13;1029202;28;20270;-70
2022/09/03 02:37:21;;;;;;;2.30;1.90;;;;;;;11.71;100.00;95556.88;1035430;28;20411;-69
2022/09/03 02:37:52;;;;;;;2.63;1.80;;;;;;;11.71;100.00;95547.16;1039884;28;20357;-69
2022/09/03 02:38:27;;;;;;;3.75;1.73;;;;;;;11.70;100.00;95550.84;1038696;28;20482;-69
2022/09/03 02:38:57;;;;;;;2.20;1.65;;;;;;;11.66;100.00;95549.78;1031420;28;20111;-69
2022/09/03 02:39:28;;;;;;;4.35;2.10;;;;;;;11.70;100.00;95556.09;1029995;28;20307;-69
2022/09/03 02:39:58;;;;;;;2.53;1.75;;;;;;;11.69;100.00;95556.34;1027366;28;20042;-69
2022/09/03 02:40:29;;;;;;;2.50;1.73;;;;;;;11.67;100.00;95561.09;1031204;28;20038;-70
2022/09/03 02:40:59;;;;;;;4.20;1.88;;;;;;;11.66;100.00;95556.91;1032436;28;20411;-69
2022/09/03 02:41:30;;;;;;;3.38;1.73;;;;;;;11.60;100.00;95550.88;1019394;29;20028;-69
2022/09/03 02:42:00;;;;;;;10.88;2.38;;;;;;;11.66;100.00;95554.28;1023587;29;20033;-70
2022/09/03 02:42:31;;;;;;;3.13;1.70;;;;;;;11.65;100.00;95552.72;1023451;29;20031;-70
2022/09/03 02:43:03;;;;;;;1.67;1.58;;;;;;;11.61;100.00;95541.97;1031346;28;20467;-70
2022/09/03 02:43:38;;;;;;;4.63;1.95;;;;;;;11.63;100.00;95558.22;1027557;28;20038;-70
2022/09/03 02:44:12;;;;;;;7.07;1.80;;;;;;;11.64;100.00;95556.41;1027409;28;20031;-69
2022/09/03 02:45:13;;;;;;;3.33;1.67;;;;;;;11.61;100.00;95551.69;1028483;28;20041;-69
2022/09/03 02:45:47;;;;;;;4.40;2.03;;;;;;;11.59;100.00;95553.81;1011283;29;20696;-70
2022/09/03 02:46:22;;;;;;;2.33;1.80;;;;;;;11.60;100.00;95548.25;1012203;28;20029;-70
2022/09/03 02:46:57;;;;;;;2.65;1.70;;;;;;;11.59;100.00;95546.69;1027527;28;20277;-70
2022/09/03 02:47:30;;;;;;;2.17;1.60;;;;;;;11.58;100.00;95547.75;1037316;28;20260;-69
2022/09/03 02:48:00;;;;;;;2.50;1.73;;;;;;;11.59;100.00;95551.16;1033931;28;21147;-70
2022/09/03 02:48:31;;;;;;;2.05;1.85;;;;;;;11.57;100.00;95554.09;1031545;28;20258;-69
2022/09/03 02:49:02;;;;;;;5.47;1.90;;;;;;;11.56;100.00;95549.88;1031112;28;20032;-71
2022/09/03 02:49:32;;;;;;;4.88;2.30;;;;;;;11.51;100.00;95548.06;1027568;28;20654;-69
2022/09/03 02:50:03;;;;;;;8.15;2.00;;;;;;;11.54;100.00;95550.16;1031419;28;20033;-69
2022/09/03 02:50:41;;;;;;;4.85;1.83;;;;;;;11.48;100.00;95543.34;1027867;28;20046;-69
2022/09/03 02:51:12;;;;;;;2.08;1.85;;;;;;;11.53;100.00;95551.19;1034473;28;20025;-70
2022/09/03 02:51:43;;;;;;;2.75;2.42;;;;;;;11.48;100.00;95542.56;1035581;28;20271;-69
2022/09/03 02:52:13;;;;;;;4.32;2.03;;;;;;;11.53;100.00;95550.41;1034325;28;20025;-70
2022/09/03 02:52:44;;;;;;;1.83;1.73;;;;;;;11.53;100.00;95551.19;1035577;28;20124;-68
2022/09/03 02:53:14;;;;;;;3.53;1.70;;;;;;;11.46;100.00;95539.41;1043336;28;20033;-69
2022/09/03 02:53:45;;;;;;;3.88;2.42;;;;;;;11.52;100.00;95552.25;1035382;28;20919;-69
2022/09/03 02:54:15;;;;;;;2.63;2.15;;;;;;;11.51;100.00;95553.31;1027697;28;20078;-69
2022/09/03 02:54:46;;;;;;;2.17;1.80;;;;;;;11.45;100.00;95543.91;1033614;28;20101;-70
2022/09/03 02:55:17;;;;;;;5.10;2.08;;;;;;;11.49;100.00;95555.44;1038855;28;20494;-69
2022/09/03 02:55:48;;;;;;;2.75;1.98;;;;;;;11.49;100.00;95549.38;1039494;28;20038;-70
2022/09/03 02:56:18;;;;;;;2.70;1.88;;;;;;;11.49;100.00;95550.16;1032320;28;20274;-69
2022/09/03 02:56:49;;;;;;;4.22;2.67;;;;;;;11.47;100.00;95552.31;1035763;28;20041;-70
2022/09/03 02:57:19;;;;;;;2.80;1.90;;;;;;;11.47;100.00;95554.94;1035727;28;20120;-70
2022/09/03 02:57:50;;;;;;;6.65;1.70;;;;;;;11.46;100.00;95563.84;1035347;28;20505;-69
2022/09/03 02:58:20;;;;;;;1.88;1.60;;;;;;;11.44;100.00;95560.72;1035515;28;20026;-69
2022/09/03 02:58:51;;;;;;;4.53;1.92;;;;;;;11.46;100.00;95558.59;1031639;28;20038;-69
2022/09/03 02:59:21;;;;;;;2.75;1.98;;;;;;;11.46;100.00;95560.44;1026882;28;20390;-70
2022/09/03 02:59:52;;;;;;;3.63;1.88;;;;;;;11.45;100.00;95566.75;1031366;28;20038;-70
2022/09/03 03:00:22;;;;;;;5.53;2.13;;;;;;;11.44;100.00;95567.81;1035648;28;20462;-69
2022/09/03 03:00:53;;;;;;;14.45;2.83;;;;;;;11.44;100.00;95563.34;1039712;28;20021;-69
2022/09/03 03:01:23;;;;;;;5.65;1.85;;;;;;;11.44;100.00;95568.59;1039489;28;20029;-70
2022/09/03 03:01:57;;;;;;;4.40;1.83;;;;;;;11.43;100.00;95574.13;1035451;28;20025;-69
2022/09/03 03:02:27;;;;;;;4.25;2.03;;;;;;;11.42;100.00;95565.47;1039610;28;20036;-69
2022/09/03 03:02:58;;;;;;;4.13;1.92;;;;;;;11.44;100.00;95573.88;1031997;28;20053;-70
2022/09/03 03:03:28;;;;;;;3.20;1.92;;;;;;;11.36;100.00;95560.50;1035424;28;20029;-69